sensor_id;sensor_type;location;lat;lon;timestamp;pressure;altitude;pressure_sealevel;temperature;humidity
45113;BME280;30873;53.908;27.576;2023-05-23T00:02:06;1018.6;;;18.1;81.5
45113;BME280;30873;53.908;27.576;2023-05-23T00:07:14;1018.5;;;18.2;81.1
45113;BME280;30873;53.908;27.576;2023-05-23T00:11:24;1018.5;;;18.1;80.9
45113;BME280;30873;53.908;27.576;2023-05-23T00:17:00;1018.5;;;18.1;81.3
45113;BME280;30873;53.908;27.576;2023-05-23T00:21:50;1018.5;;;18.1;81.6
45113;BME280;30873;53.908;27.576;2023-05-23T00:26:36;1018.5;;;18.1;82.1
45113;BME280;30873;53.908;27.576;2023-05-23T00:32:16;1018.5;;;18;82.8
45113;BME280;30873;53.908;27.576;2023-05-23T00:37:03;1018.5;;;18;83.9
45113;BME280;30873;53.908;27.576;2023-05-23T00:42:16;1018.5;;;18;84.3
45113;BME280;30873;53.908;27.576;2023-05-23T00:46:38;1018.5;;;17.9;85.1
45113;BME280;30873;53.908;27.576;2023-05-23T00:51:50;1018.5;;;17.9;85.3
45113;BME280;30873;53.908;27.576;2023-05-23T00:56:36;1018.6;;;17.9;85.6
45113;BME280;30873;53.908;27.576;2023-05-23T01:02:02;1018.6;;;17.8;87.3
45113;BME280;30873;53.908;27.576;2023-05-23T01:06:46;1018.6;;;17.6;89.7
45113;BME280;30873;53.908;27.576;2023-05-23T01:12:05;1018.6;;;17.7;90
45113;BME280;30873;53.908;27.576;2023-05-23T01:16:51;1018.6;;;17.7;90.1
45113;BME280;30873;53.908;27.576;2023-05-23T01:22:19;1018.5;;;17.7;90.8
45113;BME280;30873;53.908;27.576;2023-05-23T01:27:18;1018.5;;;17.6;92.2
45113;BME280;30873;53.908;27.576;2023-05-23T01:31:46;1018.5;;;17.6;92.9
45113;BME280;30873;53.908;27.576;2023-05-23T01:36:38;1018.4;;;17.6;92.9
45113;BME280;30873;53.908;27.576;2023-05-23T01:42:02;1018.4;;;17.6;93.3
45113;BME280;30873;53.908;27.576;2023-05-23T01:47:14;1018.5;;;17.7;93.4
45113;BME280;30873;53.908;27.576;2023-05-23T01:51:24;1018.5;;;17.7;92.7
45113;BME280;30873;53.908;27.576;2023-05-23T01:57:16;1018.5;;;17.7;92.7
45113;BME280;30873;53.908;27.576;2023-05-23T02:01:40;1018.5;;;17.6;93.7
45113;BME280;30873;53.908;27.576;2023-05-23T02:06:34;1018.5;;;17.5;95.1
45113;BME280;30873;53.908;27.576;2023-05-23T02:11:46;1018.5;;;17.5;96.4
45113;BME280;30873;53.908;27.576;2023-05-23T02:16:38;1018.5;;;17.4;96.9
45113;BME280;30873;53.908;27.576;2023-05-23T02:21:58;1018.5;;;17.5;96.4
45113;BME280;30873;53.908;27.576;2023-05-23T02:27:16;1018.5;;;17.6;94.3
45113;BME280;30873;53.908;27.576;2023-05-23T02:32:02;1018.5;;;17.8;93
45113;BME280;30873;53.908;27.576;2023-05-23T02:37:04;1018.5;;;17.9;91.4
45113;BME280;30873;53.908;27.576;2023-05-23T02:41:24;1018.5;;;18;90.1
45113;BME280;30873;53.908;27.576;2023-05-23T02:46:46;1018.4;;;18.1;93.3
45113;BME280;30873;53.908;27.576;2023-05-23T02:52:16;1018.4;;;18.2;93.1
45113;BME280;30873;53.908;27.576;2023-05-23T02:56:24;1018.4;;;18.4;93
45113;BME280;30873;53.908;27.576;2023-05-23T03:02:16;1018.3;;;18.7;91.3
45113;BME280;30873;53.908;27.576;2023-05-23T03:07:04;1018.3;;;18.9;87.9
45113;BME280;30873;53.908;27.576;2023-05-23T03:12:16;1018.3;;;19.1;86.1
45113;BME280;30873;53.908;27.576;2023-05-23T03:16:46;1018.3;;;19.3;83.6
45113;BME280;30873;53.908;27.576;2023-05-23T03:21:48;1018.2;;;19.5;83.2
45113;BME280;30873;53.908;27.576;2023-05-23T03:27:16;1018.2;;;19.7;79.8
45113;BME280;30873;53.908;27.576;2023-05-23T03:31:24;1018.2;;;19.9;75.4
45113;BME280;30873;53.908;27.576;2023-05-23T03:37:14;1018.2;;;20;74.5
45113;BME280;30873;53.908;27.576;2023-05-23T03:42:16;1018.1;;;20.1;73.1
45113;BME280;30873;53.908;27.576;2023-05-23T03:46:24;1018.1;;;20.2;73.4
45113;BME280;30873;53.908;27.576;2023-05-23T03:51:58;1018.1;;;20.6;69.3
45113;BME280;30873;53.908;27.576;2023-05-23T03:56:38;1018.2;;;21;65.9
45113;BME280;30873;53.908;27.576;2023-05-23T04:01:36;1018.2;;;21.2;64.8
45113;BME280;30873;53.908;27.576;2023-05-23T04:07:14;1018.2;;;21.6;63.4
45113;BME280;30873;53.908;27.576;2023-05-23T04:12:00;1018.2;;;21.9;61
45113;BME280;30873;53.908;27.576;2023-05-23T04:17:02;1018.2;;;22;59.7
45113;BME280;30873;53.908;27.576;2023-05-23T04:21:24;1018.2;;;22.1;58.7
45113;BME280;30873;53.908;27.576;2023-05-23T04:27:14;1018.2;;;22.3;56.6
45113;BME280;30873;53.908;27.576;2023-05-23T04:31:44;1018.2;;;22.5;55.4
45113;BME280;30873;53.908;27.576;2023-05-23T04:36:24;1018.1;;;22.6;54.8
45113;BME280;30873;53.908;27.576;2023-05-23T04:41:46;1018.1;;;22.6;53.9
45113;BME280;30873;53.908;27.576;2023-05-23T04:47:16;1018.1;;;22.8;53.5
45113;BME280;30873;53.908;27.576;2023-05-23T04:52:16;1018.1;;;22.7;53.4
45113;BME280;30873;53.908;27.576;2023-05-23T04:57:16;1018.1;;;23;52.6
45113;BME280;30873;53.908;27.576;2023-05-23T05:02:04;1018.1;;;23.1;51.2
45113;BME280;30873;53.908;27.576;2023-05-23T05:06:48;1018.1;;;23.2;50.3
45113;BME280;30873;53.908;27.576;2023-05-23T05:11:36;1018;;;23.1;50.1
45113;BME280;30873;53.908;27.576;2023-05-23T05:17:02;1018;;;23.2;50.4
45113;BME280;30873;53.908;27.576;2023-05-23T05:22:16;1017.9;;;23.5;49.3
45113;BME280;30873;53.908;27.576;2023-05-23T05:26:24;1017.9;;;23.7;48.7
45113;BME280;30873;53.908;27.576;2023-05-23T05:32:18;1017.9;;;23.7;48.1
45113;BME280;30873;53.908;27.576;2023-05-23T05:37:06;1018;;;23.8;47.9
45113;BME280;30873;53.908;27.576;2023-05-23T05:42:16;1018;;;23.7;47.5
45113;BME280;30873;53.908;27.576;2023-05-23T05:47:18;1018;;;23.8;46.9
45113;BME280;30873;53.908;27.576;2023-05-23T05:51:24;1017.9;;;24;46
45113;BME280;30873;53.908;27.576;2023-05-23T05:56:36;1017.9;;;24.1;45.5
45113;BME280;30873;53.908;27.576;2023-05-23T06:01:46;1017.8;;;24.1;44.8
45113;BME280;30873;53.908;27.576;2023-05-23T06:07:16;1017.8;;;24.2;44.5
45113;BME280;30873;53.908;27.576;2023-05-23T06:12:16;1017.8;;;24.3;44.7
45113;BME280;30873;53.908;27.576;2023-05-23T06:16:48;1017.8;;;24.5;44.8
45113;BME280;30873;53.908;27.576;2023-05-23T06:22:02;1017.8;;;24.6;44.6
45113;BME280;30873;53.908;27.576;2023-05-23T06:26:50;1017.8;;;24.7;43.9
45113;BME280;30873;53.908;27.576;2023-05-23T06:31:24;1017.8;;;24.9;42.9
45113;BME280;30873;53.908;27.576;2023-05-23T06:37:18;1017.8;;;24.8;42.8
45113;BME280;30873;53.908;27.576;2023-05-23T06:42:02;1017.7;;;24.9;42.3
45113;BME280;30873;53.908;27.576;2023-05-23T06:47:06;1017.7;;;25.3;41.8
45113;BME280;30873;53.908;27.576;2023-05-23T06:51:50;1017.7;;;25.3;41.6
45113;BME280;30873;53.908;27.576;2023-05-23T06:57:04;1017.7;;;25.3;41.2
45113;BME280;30873;53.908;27.576;2023-05-23T07:01:46;1017.6;;;25.5;40.4
45113;BME280;30873;53.908;27.576;2023-05-23T07:06:24;1017.7;;;25.5;39.9
45113;BME280;30873;53.908;27.576;2023-05-23T07:11:46;1017.7;;;25.7;39.6
45113;BME280;30873;53.908;27.576;2023-05-23T07:17:02;1017.6;;;25.6;39.5
45113;BME280;30873;53.908;27.576;2023-05-23T07:21:24;1017.6;;;25.7;39.5
45113;BME280;30873;53.908;27.576;2023-05-23T07:27:18;1017.6;;;26.1;38.7
45113;BME280;30873;53.908;27.576;2023-05-23T07:32:14;1017.6;;;26;38.7
45113;BME280;30873;53.908;27.576;2023-05-23T07:36:24;1017.6;;;26.1;38.6
45113;BME280;30873;53.908;27.576;2023-05-23T07:41:46;1017.6;;;26.2;38.4
45113;BME280;30873;53.908;27.576;2023-05-23T07:47:02;1017.5;;;26.5;37.8
45113;BME280;30873;53.908;27.576;2023-05-23T07:52:00;1017.5;;;26.5;37.3
45113;BME280;30873;53.908;27.576;2023-05-23T07:57:02;1017.5;;;26.7;37
45113;BME280;30873;53.908;27.576;2023-05-23T08:02:02;1017.4;;;26.8;36.6
45113;BME280;30873;53.908;27.576;2023-05-23T08:06:26;1017.4;;;27;36.2
45113;BME280;30873;53.908;27.576;2023-05-23T08:11:48;1017.4;;;27.1;35.2
45113;BME280;30873;53.908;27.576;2023-05-23T08:16:46;1017.4;;;26.9;34.7
45113;BME280;30873;53.908;27.576;2023-05-23T08:21:50;1017.3;;;26.3;35.3
45113;BME280;30873;53.908;27.576;2023-05-23T08:27:02;1017.3;;;25.9;35.7
45113;BME280;30873;53.908;27.576;2023-05-23T08:31:36;1017.3;;;25.6;36.1
45113;BME280;30873;53.908;27.576;2023-05-23T08:37:06;1017.3;;;25.7;36.2
45113;BME280;30873;53.908;27.576;2023-05-23T08:42:18;1017.3;;;25.9;35.9
45113;BME280;30873;53.908;27.576;2023-05-23T08:46:43;1017.2;;;26.3;35.5
45113;BME280;30873;53.908;27.576;2023-05-23T08:52:02;1017.2;;;26.7;35.1
45113;BME280;30873;53.908;27.576;2023-05-23T08:56:24;1017.1;;;26.9;34.3
45113;BME280;30873;53.908;27.576;2023-05-23T09:01:24;1017;;;27.3;33.6
45113;BME280;30873;53.908;27.576;2023-05-23T09:07:18;1017;;;27.7;33.3
45113;BME280;30873;53.908;27.576;2023-05-23T09:12:02;1017;;;27.6;33.2
45113;BME280;30873;53.908;27.576;2023-05-23T09:17:04;1016.9;;;27.9;32.9
45113;BME280;30873;53.908;27.576;2023-05-23T09:21:50;1016.9;;;29.6;29.9
45113;BME280;30873;53.908;27.576;2023-05-23T09:26:36;1016.8;;;30;28.9
45113;BME280;30873;53.908;27.576;2023-05-23T09:32:09;1016.8;;;30.6;28
45113;BME280;30873;53.908;27.576;2023-05-23T09:36:26;1016.8;;;30;28.6
45113;BME280;30873;53.908;27.576;2023-05-23T09:41:47;1016.8;;;29.9;28.7
45113;BME280;30873;53.908;27.576;2023-05-23T09:47:05;1016.8;;;29.5;29.6
45113;BME280;30873;53.908;27.576;2023-05-23T09:51:24;1016.8;;;29.3;29.6
45113;BME280;30873;53.908;27.576;2023-05-23T09:57:18;1016.7;;;29.4;30.1
45113;BME280;30873;53.908;27.576;2023-05-23T10:02:22;1016.7;;;29.3;29.6
45113;BME280;30873;53.908;27.576;2023-05-23T10:06:48;1016.7;;;29.2;29.6
45113;BME280;30873;53.908;27.576;2023-05-23T10:13:08;1016.7;;;29.7;28.7
45113;BME280;30873;53.908;27.576;2023-05-23T10:17:02;1016.7;;;31.9;26.5
45113;BME280;30873;53.908;27.576;2023-05-23T10:22:18;1016.7;;;33;25.1
45113;BME280;30873;53.908;27.576;2023-05-23T10:27:02;1016.7;;;33.9;24.1
45113;BME280;30873;53.908;27.576;2023-05-23T10:32:02;1016.7;;;35.8;22.8
45113;BME280;30873;53.908;27.576;2023-05-23T10:37:06;1016.6;;;37.3;21.7
45113;BME280;30873;53.908;27.576;2023-05-23T10:41:26;1016.6;;;38.6;20.1
45113;BME280;30873;53.908;27.576;2023-05-23T10:46:54;1016.6;;;39.1;19.6
45113;BME280;30873;53.908;27.576;2023-05-23T10:51:50;1016.5;;;38.1;19.5
45113;BME280;30873;53.908;27.576;2023-05-23T10:57:18;1016.5;;;39.3;18.5
45113;BME280;30873;53.908;27.576;2023-05-23T11:01:46;1016.4;;;37.6;18.1
45113;BME280;30873;53.908;27.576;2023-05-23T11:06:28;1016.4;;;38.4;17.1
45113;BME280;30873;53.908;27.576;2023-05-23T11:12:21;1016.3;;;40.3;16.4
45113;BME280;30873;53.908;27.576;2023-05-23T11:16:25;1016.3;;;41.3;14.7
45113;BME280;30873;53.908;27.576;2023-05-23T11:22:02;1016.2;;;41.3;13.3
45113;BME280;30873;53.908;27.576;2023-05-23T11:26:51;1016.2;;;40.1;14.7
45113;BME280;30873;53.908;27.576;2023-05-23T11:31:24;1016.1;;;37.2;15.1
45113;BME280;30873;53.908;27.576;2023-05-23T11:37:18;1016.2;;;34.7;17.3
45113;BME280;30873;53.908;27.576;2023-05-23T11:42:06;1016.1;;;33.9;19
45113;BME280;30873;53.908;27.576;2023-05-23T11:47:18;1016.2;;;32.8;21.4
45113;BME280;30873;53.908;27.576;2023-05-23T11:51:48;1016.2;;;31.9;23.4
45113;BME280;30873;53.908;27.576;2023-05-23T11:56:50;1016.2;;;31;24.4
45113;BME280;30873;53.908;27.576;2023-05-23T12:01:48;1016.2;;;30.4;24.7
45113;BME280;30873;53.908;27.576;2023-05-23T12:06:49;1016.2;;;29.8;25
45113;BME280;30873;53.908;27.576;2023-05-23T12:12:18;1016.1;;;29.4;25.3
45113;BME280;30873;53.908;27.576;2023-05-23T12:17:18;1016.1;;;29.2;25.3
45113;BME280;30873;53.908;27.576;2023-05-23T12:21:50;1016.1;;;29;25.6
45113;BME280;30873;53.908;27.576;2023-05-23T12:27:02;1016.1;;;28.8;26
45113;BME280;30873;53.908;27.576;2023-05-23T12:31:24;1016.1;;;28.8;26.1
45113;BME280;30873;53.908;27.576;2023-05-23T12:36:36;1016;;;28.8;25.9
45113;BME280;30873;53.908;27.576;2023-05-23T12:42:18;1016;;;28.6;26.5
45113;BME280;30873;53.908;27.576;2023-05-23T12:47:01;1016;;;28.4;27
45113;BME280;30873;53.908;27.576;2023-05-23T12:52:04;1015.9;;;28.5;26.7
45113;BME280;30873;53.908;27.576;2023-05-23T12:56:24;1015.9;;;28.4;27.2
45113;BME280;30873;53.908;27.576;2023-05-23T13:02:18;1015.8;;;28.5;26.9
45113;BME280;30873;53.908;27.576;2023-05-23T13:06:24;1015.8;;;28.4;27
45113;BME280;30873;53.908;27.576;2023-05-23T13:11:46;1015.8;;;28.2;27.4
45113;BME280;30873;53.908;27.576;2023-05-23T13:16:34;1015.8;;;28.1;27.7
45113;BME280;30873;53.908;27.576;2023-05-23T13:22:02;1015.8;;;28.2;27.8
45113;BME280;30873;53.908;27.576;2023-05-23T13:27:18;1015.8;;;28.3;27.9
45113;BME280;30873;53.908;27.576;2023-05-23T13:32:18;1015.7;;;28.3;28
45113;BME280;30873;53.908;27.576;2023-05-23T13:37:06;1015.7;;;28.4;28.6
45113;BME280;30873;53.908;27.576;2023-05-23T13:41:36;1015.7;;;28.6;28.7
45113;BME280;30873;53.908;27.576;2023-05-23T13:46:24;1015.7;;;28.7;28.3
45113;BME280;30873;53.908;27.576;2023-05-23T13:52:02;1015.6;;;28.8;28.3
45113;BME280;30873;53.908;27.576;2023-05-23T13:57:18;1015.6;;;29.2;27.9
45113;BME280;30873;53.908;27.576;2023-05-23T14:01:38;1015.6;;;29.3;27.5
45113;BME280;30873;53.908;27.576;2023-05-23T14:07:18;1015.6;;;29.4;27
45113;BME280;30873;53.908;27.576;2023-05-23T14:12:06;1015.6;;;29.4;27
45113;BME280;30873;53.908;27.576;2023-05-23T14:17:18;1015.6;;;29.4;26.9
45113;BME280;30873;53.908;27.576;2023-05-23T14:21:34;1015.6;;;29.7;26.7
45113;BME280;30873;53.908;27.576;2023-05-23T14:26:50;1015.6;;;29.8;26.3
45113;BME280;30873;53.908;27.576;2023-05-23T14:31:52;1015.5;;;30.5;25.4
45113;BME280;30873;53.908;27.576;2023-05-23T14:36:36;1015.5;;;30.8;25
45113;BME280;30873;53.908;27.576;2023-05-23T14:42:04;1015.6;;;30.4;25.1
45113;BME280;30873;53.908;27.576;2023-05-23T14:47:04;1015.6;;;30.3;25
45113;BME280;30873;53.908;27.576;2023-05-23T14:51:24;1015.5;;;30.7;24.5
45113;BME280;30873;53.908;27.576;2023-05-23T14:57:04;1015.5;;;30.4;24.7
45113;BME280;30873;53.908;27.576;2023-05-23T15:01:24;1015.5;;;30.2;24.8
45113;BME280;30873;53.908;27.576;2023-05-23T15:06:48;1015.4;;;31.1;24.2
45113;BME280;30873;53.908;27.576;2023-05-23T15:12:20;1015.2;;;35.2;20.9
45113;BME280;30873;53.908;27.576;2023-05-23T15:17:20;1015.2;;;37.9;18.5
45113;BME280;30873;53.908;27.576;2023-05-23T15:22:04;1015.2;;;39.1;17.6
45113;BME280;30873;53.908;27.576;2023-05-23T15:26:24;1015.1;;;39.6;17.2
45113;BME280;30873;53.908;27.576;2023-05-23T15:32:20;1015.1;;;40.3;16.6
45113;BME280;30873;53.908;27.576;2023-05-23T15:37:02;1015.1;;;41.3;16.1
45113;BME280;30873;53.908;27.576;2023-05-23T15:41:24;1015.1;;;41.5;15.9
45113;BME280;30873;53.908;27.576;2023-05-23T15:46:49;1015;;;41.5;15.7
45113;BME280;30873;53.908;27.576;2023-05-23T15:52:20;1015;;;40.8;16
45113;BME280;30873;53.908;27.576;2023-05-23T15:56:36;1015;;;40.3;16.3
45113;BME280;30873;53.908;27.576;2023-05-23T16:02:20;1015;;;39.2;16.8
45113;BME280;30873;53.908;27.576;2023-05-23T16:07:20;1015.1;;;38;17.7
45113;BME280;30873;53.908;27.576;2023-05-23T16:11:52;1015;;;37.3;18.2
45113;BME280;30873;53.908;27.576;2023-05-23T16:16:24;1015;;;37.8;18
45113;BME280;30873;53.908;27.576;2023-05-23T16:22:04;1015;;;38.2;17.6
45113;BME280;30873;53.908;27.576;2023-05-23T16:27:18;1015;;;38.4;17.6
45113;BME280;30873;53.908;27.576;2023-05-23T16:31:36;1014.9;;;38.3;17.7
45113;BME280;30873;53.908;27.576;2023-05-23T16:37:04;1015;;;38;17.9
45113;BME280;30873;53.908;27.576;2023-05-23T16:42:06;1014.9;;;37.6;18.4
45113;BME280;30873;53.908;27.576;2023-05-23T16:46:40;1014.9;;;36.9;19
45113;BME280;30873;53.908;27.576;2023-05-23T16:52:00;1014.9;;;36.6;19.4
45113;BME280;30873;53.908;27.576;2023-05-23T16:56:48;1015;;;36.2;19.8
45113;BME280;30873;53.908;27.576;2023-05-23T17:02:00;1015;;;35.5;20.4
45113;BME280;30873;53.908;27.576;2023-05-23T17:06:46;1015.1;;;34.9;20.9
45113;BME280;30873;53.908;27.576;2023-05-23T17:11:38;1015.1;;;34.5;21.4
45113;BME280;30873;53.908;27.576;2023-05-23T17:17:16;1015.1;;;34;21.7
45113;BME280;30873;53.908;27.576;2023-05-23T17:22:02;1015;;;33.1;22.7
45113;BME280;30873;53.908;27.576;2023-05-23T17:27:04;1015.1;;;32.2;23.7
45113;BME280;30873;53.908;27.576;2023-05-23T17:31:38;1015.1;;;31.4;24.6
45113;BME280;30873;53.908;27.576;2023-05-23T17:36:24;1015.1;;;31;25.1
45113;BME280;30873;53.908;27.576;2023-05-23T17:42:18;1015.1;;;30.5;25.9
45113;BME280;30873;53.908;27.576;2023-05-23T17:47:04;1015.1;;;30;26.4
45113;BME280;30873;53.908;27.576;2023-05-23T17:52:20;1015.1;;;29.4;27.3
45113;BME280;30873;53.908;27.576;2023-05-23T17:56:50;1015.1;;;28.6;28.3
45113;BME280;30873;53.908;27.576;2023-05-23T18:02:20;1015.1;;;28;29.2
45113;BME280;30873;53.908;27.576;2023-05-23T18:06:48;1015.2;;;27.2;30.3
45113;BME280;30873;53.908;27.576;2023-05-23T18:11:48;1015.2;;;26.5;31.5
45113;BME280;30873;53.908;27.576;2023-05-23T18:16:48;1015.3;;;26.1;32.4
45113;BME280;30873;53.908;27.576;2023-05-23T18:22:20;1015.3;;;25.6;33.3
45113;BME280;30873;53.908;27.576;2023-05-23T18:26:36;1015.4;;;25.2;34.5
45113;BME280;30873;53.908;27.576;2023-05-23T18:32:16;1015.4;;;24.8;35.5
45113;BME280;30873;53.908;27.576;2023-05-23T18:37:18;1015.4;;;24.4;36.6
45113;BME280;30873;53.908;27.576;2023-05-23T18:41:46;1015.4;;;24.1;37.8
45113;BME280;30873;53.908;27.576;2023-05-23T18:46:24;1015.5;;;23.8;38.8
45113;BME280;30873;53.908;27.576;2023-05-23T18:52:18;1015.5;;;23.5;39.8
45113;BME280;30873;53.908;27.576;2023-05-23T18:57:16;1015.5;;;23.3;40.7
45113;BME280;30873;53.908;27.576;2023-05-23T19:01:24;1015.5;;;23.2;41.6
45113;BME280;30873;53.908;27.576;2023-05-23T19:07:04;1015.5;;;23;42.5
45113;BME280;30873;53.908;27.576;2023-05-23T19:12:04;1015.6;;;22.8;43.5
45113;BME280;30873;53.908;27.576;2023-05-23T19:16:24;1015.5;;;22.6;44.5
45113;BME280;30873;53.908;27.576;2023-05-23T19:21:25;1015.5;;;22.5;45.3
45113;BME280;30873;53.908;27.576;2023-05-23T19:26:24;1015.5;;;22.5;46
45113;BME280;30873;53.908;27.576;2023-05-23T19:32:04;1015.6;;;22.3;46.9
45113;BME280;30873;53.908;27.576;2023-05-23T19:36:24;1015.6;;;22.2;48.1
45113;BME280;30873;53.908;27.576;2023-05-23T19:41:50;1015.6;;;22.1;48.9
45113;BME280;30873;53.908;27.576;2023-05-23T19:47:18;1015.7;;;22;50
45113;BME280;30873;53.908;27.576;2023-05-23T19:51:50;1015.7;;;21.9;50.6
45113;BME280;30873;53.908;27.576;2023-05-23T19:57:02;1015.7;;;21.9;51.1
45113;BME280;30873;53.908;27.576;2023-05-23T20:01:50;1015.7;;;21.8;52.1
45113;BME280;30873;53.908;27.576;2023-05-23T20:06:24;1015.7;;;21.6;53.4
45113;BME280;30873;53.908;27.576;2023-05-23T20:12:20;1015.7;;;21.5;54.6
45113;BME280;30873;53.908;27.576;2023-05-23T20:17:04;1015.7;;;21.4;55.4
45113;BME280;30873;53.908;27.576;2023-05-23T20:22:06;1015.8;;;21.3;56.2
45113;BME280;30873;53.908;27.576;2023-05-23T20:26:50;1015.8;;;21.2;57.5
45113;BME280;30873;53.908;27.576;2023-05-23T20:31:50;1015.8;;;21.2;59
45113;BME280;30873;53.908;27.576;2023-05-23T20:37:06;1015.9;;;21.2;59.7
45113;BME280;30873;53.908;27.576;2023-05-23T20:41:46;1015.9;;;21.1;61.7
45113;BME280;30873;53.908;27.576;2023-05-23T20:47:18;1015.9;;;21.1;62.6
45113;BME280;30873;53.908;27.576;2023-05-23T20:52:16;1016;;;21.1;63.9
45113;BME280;30873;53.908;27.576;2023-05-23T20:56:36;1016;;;21.1;64.5
45113;BME280;30873;53.908;27.576;2023-05-23T21:02:04;1016.1;;;21.1;63.6
45113;BME280;30873;53.908;27.576;2023-05-23T21:06:24;1016.1;;;21.1;63.1
45113;BME280;30873;53.908;27.576;2023-05-23T21:11:36;1016;;;21;63.5
45113;BME280;30873;53.908;27.576;2023-05-23T21:17:20;1016.1;;;20.9;64.7
45113;BME280;30873;53.908;27.576;2023-05-23T21:22:04;1016.1;;;20.9;64.8
45113;BME280;30873;53.908;27.576;2023-05-23T21:27:04;1016;;;20.8;65.1
45113;BME280;30873;53.908;27.576;2023-05-23T21:31:50;1016.1;;;20.7;65.6
45113;BME280;30873;53.908;27.576;2023-05-23T21:37:20;1016.1;;;20.6;67.3
45113;BME280;30873;53.908;27.576;2023-05-23T21:41:48;1016.1;;;20.5;68.8
45113;BME280;30873;53.908;27.576;2023-05-23T21:46:36;1016.1;;;20.4;70
45113;BME280;30873;53.908;27.576;2023-05-23T21:51:48;1016.1;;;20.3;71
45113;BME280;30873;53.908;27.576;2023-05-23T21:57:20;1016.1;;;20.2;71.3
45113;BME280;30873;53.908;27.576;2023-05-23T22:02:20;1016.1;;;20.2;71.9
45113;BME280;30873;53.908;27.576;2023-05-23T22:07:18;1016.2;;;20.1;73.3
45113;BME280;30873;53.908;27.576;2023-05-23T22:11:52;1016.2;;;19.9;74.7
45113;BME280;30873;53.908;27.576;2023-05-23T22:16:50;1016.2;;;19.8;76.5
45113;BME280;30873;53.908;27.576;2023-05-23T22:21:52;1016.1;;;19.7;77.6
45113;BME280;30873;53.908;27.576;2023-05-23T22:26:24;1016.1;;;19.7;77.7
45113;BME280;30873;53.908;27.576;2023-05-23T22:32:20;1016.1;;;19.7;78
45113;BME280;30873;53.908;27.576;2023-05-23T22:36:36;1016.1;;;19.6;79.9
45113;BME280;30873;53.908;27.576;2023-05-23T22:42:20;1016.1;;;19.4;80.1
45113;BME280;30873;53.908;27.576;2023-05-23T22:47:06;1016.1;;;19.3;80.6
45113;BME280;30873;53.908;27.576;2023-05-23T22:52:18;1016.1;;;19.3;84.3
45113;BME280;30873;53.908;27.576;2023-05-23T22:56:48;1016.1;;;19.1;89.7
45113;BME280;30873;53.908;27.576;2023-05-23T23:01:48;1016.1;;;19;90.8
45113;BME280;30873;53.908;27.576;2023-05-23T23:07:03;1016.1;;;18.9;89.5
45113;BME280;30873;53.908;27.576;2023-05-23T23:11:34;1016;;;18.9;88.4
45113;BME280;30873;53.908;27.576;2023-05-23T23:17:18;1016;;;18.9;89.3
45113;BME280;30873;53.908;27.576;2023-05-23T23:22:18;1016.1;;;18.8;90.5
45113;BME280;30873;53.908;27.576;2023-05-23T23:26:24;1016.1;;;18.8;90.8
45113;BME280;30873;53.908;27.576;2023-05-23T23:32:00;1016.1;;;18.7;91.4
45113;BME280;30873;53.908;27.576;2023-05-23T23:37:03;1016.2;;;18.7;91.4
45113;BME280;30873;53.908;27.576;2023-05-23T23:41:46;1016.1;;;18.6;92.1
45113;BME280;30873;53.908;27.576;2023-05-23T23:47:14;1016.1;;;18.6;96
45113;BME280;30873;53.908;27.576;2023-05-23T23:51:58;1016.1;;;18.6;97.6
45113;BME280;30873;53.908;27.576;2023-05-23T23:57:00;1016.2;;;18.5;97.6
